Time;durP1;ratioP1;P1;durP2;ratioP2;P2;SDS_P1;SDS_P2;PMS_P1;PMS_P2;Temp;Humidity;BMP_temperature;BMP_pressure;BME280_temperature;BME280_humidity;BME280_pressure;Samples;Min_cycle;Max_cycle;Signal;HPM_P1;HPM_P2
2023/06/27 00:00:46;;;;;;;11.35;1.88;;;;;;;-146.25;100.00;52043.78;2098123;28;32200;-72
2023/06/27 00:01:49;;;;;;;10.63;2.33;;;;;;;-146.25;100.00;52072.19;2088592;28;29289;-71
2023/06/27 00:02:53;;;;;;;11.70;2.20;;;;;;;-146.25;100.00;52088.41;2088207;28;35126;-72
2023/06/27 00:03:58;;;;;;;8.75;2.05;;;;;;;-146.25;100.00;52021.50;2088301;28;35900;-71
2023/06/27 00:05:00;;;;;;;7.22;1.88;;;;;;;-146.25;100.00;52076.22;2088389;28;36236;-71
2023/06/27 00:06:04;;;;;;;6.63;1.63;;;;;;;-146.25;100.00;52082.31;2088125;28;36538;-72
2023/06/27 00:07:06;;;;;;;8.73;1.95;;;;;;;-146.25;100.00;52062.03;2087537;28;36677;-72
2023/06/27 00:08:07;;;;;;;7.00;1.70;;;;;;;-146.25;100.00;52072.19;2087742;28;31863;-72
2023/06/27 00:09:14;;;;;;;5.38;1.45;;;;;;;-146.25;100.00;52060.00;2088578;28;37243;-72
2023/06/27 00:10:16;;;;;;;12.13;1.95;;;;;;;-146.25;100.00;52029.59;2087975;28;33640;-73
2023/06/27 00:11:18;;;;;;;7.13;1.70;;;;;;;-146.25;100.00;52076.22;2087594;28;36676;-72
2023/06/27 00:12:20;;;;;;;6.85;2.05;;;;;;;-146.25;100.00;52023.53;2088530;28;36509;-72
2023/06/27 00:13:22;;;;;;;6.05;1.25;;;;;;;-146.25;100.00;52053.94;2088527;28;30894;-72
2023/06/27 00:14:25;;;;;;;12.70;2.50;;;;;;;-146.25;100.00;52068.13;2088453;28;37457;-71
2023/06/27 00:15:29;;;;;;;8.35;2.08;;;;;;;-146.25;100.00;52049.88;2088583;28;34458;-72
2023/06/27 00:16:35;;;;;;;10.93;2.03;;;;;;;-146.25;100.00;52041.75;2088295;28;33176;-72
2023/06/27 00:17:37;;;;;;;9.48;1.88;;;;;;;-146.25;100.00;52045.81;2088049;28;32101;-72
2023/06/27 00:18:48;;;;;;;7.43;1.73;;;;;;;-146.25;100.00;52072.19;2087869;28;31232;-71
2023/06/27 00:19:50;;;;;;;12.65;1.92;;;;;;;-146.25;100.00;52102.59;2079537;28;35238;-72
2023/06/27 00:20:52;;;;;;;9.77;1.80;;;;;;;-146.25;100.00;52078.25;2072702;28;32389;-72
2023/06/27 00:21:55;;;;;;;5.28;1.45;;;;;;;-146.25;100.00;52072.19;2087864;28;33689;-72
2023/06/27 00:23:17;;;;;;;6.68;2.10;;;;;;;-146.25;100.00;52074.22;2087980;28;37623;-72
2023/06/27 00:24:19;;;;;;;10.43;2.28;;;;;;;-146.25;100.00;52104.63;2080188;28;31876;-72
2023/06/27 00:25:23;;;;;;;10.15;2.20;;;;;;;-146.25;100.00;52068.13;2082112;28;20156;-71
2023/06/27 00:26:25;;;;;;;9.45;1.90;;;;;;;-146.25;100.00;52076.22;2088221;28;36515;-72
2023/06/27 00:27:27;;;;;;;7.35;1.38;;;;;;;-146.25;100.00;52060.00;2088843;28;20864;-71
2023/06/27 00:28:30;;;;;;;11.20;2.03;;;;;;;-146.25;100.00;52078.25;2088779;28;29724;-72
2023/06/27 00:29:36;;;;;;;7.72;1.67;;;;;;;-146.25;100.00;52062.03;2088859;28;20038;-72
2023/06/27 00:30:38;;;;;;;11.13;2.00;;;;;;;-146.25;100.00;52076.22;2088766;28;29102;-72
2023/06/27 00:31:43;;;;;;;11.73;2.00;;;;;;;-146.25;100.00;52074.22;2089845;28;32499;-71
2023/06/27 00:32:45;;;;;;;7.03;1.67;;;;;;;-146.25;100.00;52076.22;2089315;28;20117;-71
2023/06/27 00:33:47;;;;;;;7.63;2.15;;;;;;;-146.25;100.00;52078.25;2096072;28;23243;-71
2023/06/27 00:34:51;;;;;;;8.68;1.90;;;;;;;-146.25;100.00;52080.28;2087917;28;27010;-72
2023/06/27 00:35:53;;;;;;;6.20;1.75;;;;;;;-146.25;100.00;52070.16;2079667;28;32300;-71
2023/06/27 00:36:55;;;;;;;7.72;1.80;;;;;;;-146.25;100.00;52078.25;2088026;28;27195;-72
2023/06/27 00:38:01;;;;;;;11.20;2.05;;;;;;;-146.25;100.00;52070.16;2088087;28;20046;-71
2023/06/27 00:39:09;;;;;;;6.82;1.77;;;;;;;-146.25;100.00;52116.78;2088326;28;20050;-71
2023/06/27 00:40:12;;;;;;;9.98;2.40;;;;;;;-146.25;100.00;52088.41;2088524;28;31030;-71
2023/06/27 00:41:13;;;;;;;7.32;1.98;;;;;;;-146.25;100.00;52051.91;2095891;28;20076;-71
2023/06/27 00:42:17;;;;;;;9.27;1.60;;;;;;;-146.25;100.00;52060.00;2087482;28;30941;-71
2023/06/27 00:43:19;;;;;;;6.20;1.50;;;;;;;-146.25;100.00;52078.25;2087733;28;26258;-70
2023/06/27 00:44:22;;;;;;;8.65;2.00;;;;;;;-146.25;100.00;52092.44;2087817;28;20099;-71
2023/06/27 00:45:24;;;;;;;7.75;2.22;;;;;;;-146.25;100.00;52039.75;2087977;28;29059;-72
2023/06/27 00:46:47;;;;;;;8.85;1.80;;;;;;;-146.25;100.00;52094.47;2088494;28;20192;-71
2023/06/27 00:47:53;;;;;;;10.35;2.15;;;;;;;-146.25;100.00;52102.59;2082401;28;32171;-71
2023/06/27 00:48:55;;;;;;;7.18;1.77;;;;;;;-146.25;100.00;52055.97;2088189;28;26411;-72
2023/06/27 00:49:57;;;;;;;6.43;1.67;;;;;;;-146.25;100.00;52120.84;2096570;28;20910;-71
2023/06/27 00:50:59;;;;;;;9.68;1.92;;;;;;;-146.25;100.00;52104.63;2096361;28;25370;-71
2023/06/27 00:52:04;;;;;;;10.07;1.80;;;;;;;-146.25;100.00;52047.84;2096405;28;21047;-72
2023/06/27 00:53:06;;;;;;;8.88;1.65;;;;;;;-146.25;100.00;52072.19;2087996;28;20041;-71
2023/06/27 00:54:11;;;;;;;6.88;1.95;;;;;;;-146.25;100.00;52084.34;2080456;28;20045;-71
2023/06/27 00:55:13;;;;;;;8.32;2.03;;;;;;;-146.25;100.00;52064.06;2080079;28;26494;-71
2023/06/27 00:56:15;;;;;;;7.63;1.80;;;;;;;-146.25;100.00;52102.59;2079679;28;27431;-71
2023/06/27 00:57:17;;;;;;;9.13;2.28;;;;;;;-146.25;100.00;52108.66;2096467;28;20104;-71
2023/06/27 00:58:24;;;;;;;7.50;1.88;;;;;;;-146.25;100.00;52051.91;2096155;28;20044;-72
2023/06/27 00:59:27;;;;;;;4.57;1.90;;;;;;;-146.25;100.00;52068.13;2088465;28;20147;-72
2023/06/27 01:00:30;;;;;;;7.80;1.75;;;;;;;-146.25;100.00;52080.28;2095986;28;27129;-71
2023/06/27 01:01:31;;;;;;;11.35;2.00;;;;;;;-146.25;100.00;52114.75;2095854;28;22496;-72
2023/06/27 01:02:33;;;;;;;8.90;2.40;;;;;;;-146.25;100.00;52047.84;2095881;28;26800;-72
2023/06/27 01:03:35;;;;;;;4.25;1.42;;;;;;;-146.25;100.00;52072.19;2088625;28;23545;-72
2023/06/27 01:04:37;;;;;;;6.47;2.05;;;;;;;-146.25;100.00;52088.41;2079641;28;20919;-71
2023/06/27 01:05:39;;;;;;;5.25;2.00;;;;;;;-146.25;100.00;52112.72;2063661;28;27815;-71
2023/06/27 01:06:58;;;;;;;8.00;1.98;;;;;;;-146.25;100.00;52110.69;2080224;28;20038;-72
2023/06/27 01:08:23;;;;;;;8.40;1.98;;;;;;;-146.25;100.00;52086.38;2096384;28;20258;-71
2023/06/27 01:09:50;;;;;;;6.60;1.90;;;;;;;-146.25;100.00;52078.25;2093805;28;26288;-71
2023/06/27 01:11:11;;;;;;;5.93;2.20;;;;;;;-146.25;100.00;52066.09;2087243;28;37320;-71
2023/06/27 01:12:35;;;;;;;7.63;2.10;;;;;;;-146.25;100.00;52096.50;2082329;28;28332;-71
2023/06/27 01:13:42;;;;;;;7.45;1.80;;;;;;;-146.25;100.00;52076.22;2082321;28;31608;-71
2023/06/27 01:14:46;;;;;;;8.10;1.80;;;;;;;-146.25;100.00;52070.16;2082277;28;23586;-71
2023/06/27 01:15:52;;;;;;;11.02;2.13;;;;;;;-146.25;100.00;52080.28;2080718;28;20057;-71
2023/06/27 01:16:58;;;;;;;7.20;1.90;;;;;;;-146.25;100.00;52088.41;2080402;28;30894;-71
2023/06/27 01:18:00;;;;;;;8.68;1.80;;;;;;;-146.25;100.00;52118.81;2079568;28;20851;-71
2023/06/27 01:19:08;;;;;;;7.82;1.95;;;;;;;-146.25;100.00;52080.28;2063509;28;26408;-72
2023/06/27 01:20:13;;;;;;;8.23;1.90;;;;;;;-146.25;100.00;52074.22;2082487;28;20057;-72
2023/06/27 01:21:19;;;;;;;7.03;1.85;;;;;;;-146.25;100.00;52068.13;2095642;28;27272;-71
2023/06/27 01:22:35;;;;;;;10.57;2.05;;;;;;;-146.25;100.00;52086.38;2088330;28;20045;-71
2023/06/27 01:23:49;;;;;;;8.88;2.35;;;;;;;-146.25;100.00;52076.22;2074200;28;20100;-71
2023/06/27 01:24:54;;;;;;;6.50;2.08;;;;;;;-146.25;100.00;52092.44;2075840;28;20164;-71
2023/06/27 01:26:07;;;;;;;6.80;1.55;;;;;;;-146.25;100.00;52058.00;2080198;28;20057;-71
2023/06/27 01:27:11;;;;;;;7.38;2.00;;;;;;;-146.25;100.00;52080.28;2081786;28;30613;-71
2023/06/27 01:28:14;;;;;;;4.82;1.60;;;;;;;-146.25;100.00;52076.22;2087253;28;29796;-70
2023/06/27 01:29:16;;;;;;;7.30;1.90;;;;;;;-146.25;100.00;52064.06;2095917;28;25112;-71
2023/06/27 01:30:19;;;;;;;8.13;1.88;;;;;;;-146.25;100.00;52084.34;2095993;28;20926;-72
2023/06/27 01:31:28;;;;;;;5.78;1.67;;;;;;;-146.25;100.00;52084.34;2088891;28;20127;-71
2023/06/27 01:32:52;;;;;;;7.95;1.75;;;;;;;-146.25;100.00;52047.84;2095772;28;26887;-71
2023/06/27 01:34:06;;;;;;;6.00;1.98;;;;;;;-146.25;100.00;52064.06;2087202;28;38913;-72
2023/06/27 01:35:34;;;;;;;3.97;1.80;;;;;;;-146.25;100.00;52068.13;2088248;28;28045;-72
2023/06/27 01:36:44;;;;;;;4.57;1.90;;;;;;;-146.25;100.00;52106.66;2095614;28;34754;-66
2023/06/27 01:37:56;;;;;;;6.85;2.05;;;;;;;-146.25;100.00;52122.88;2079171;28;32072;-71
2023/06/27 01:39:08;;;;;;;7.07;1.95;;;;;;;-146.25;100.00;52102.59;2083127;28;20054;-72
2023/06/27 01:40:19;;;;;;;6.65;2.00;;;;;;;-146.25;100.00;52090.44;2096237;28;20041;-71
2023/06/27 01:41:26;;;;;;;7.07;1.80;;;;;;;-146.25;100.00;52080.28;2087525;28;31195;-71
2023/06/27 01:42:33;;;;;;;9.93;2.10;;;;;;;-146.25;100.00;52086.38;2087679;28;31994;-71
2023/06/27 01:43:37;;;;;;;8.23;1.92;;;;;;;-146.25;100.00;52092.44;2087415;28;29982;-72
2023/06/27 01:44:42;;;;;;;7.57;2.47;;;;;;;-146.25;100.00;52114.75;2080040;28;20042;-71
2023/06/27 01:45:44;;;;;;;9.40;2.13;;;;;;;-146.25;100.00;52098.53;2087536;28;21747;-71
2023/06/27 01:46:51;;;;;;;9.23;1.90;;;;;;;-146.25;100.00;52072.19;2080342;28;20926;-71
2023/06/27 01:47:57;;;;;;;9.27;1.92;;;;;;;-146.25;100.00;52088.41;2073394;28;20077;-72
2023/06/27 01:49:03;;;;;;;6.85;2.00;;;;;;;-146.25;100.00;52068.13;2088381;28;20143;-71
2023/06/27 01:50:06;;;;;;;8.30;1.90;;;;;;;-146.25;100.00;52043.78;2079706;28;20041;-72
2023/06/27 01:51:09;;;;;;;7.10;1.50;;;;;;;-146.25;100.00;52092.44;2080483;28;20092;-71
2023/06/27 01:52:13;;;;;;;6.15;2.03;;;;;;;-146.25;100.00;52100.56;2087729;28;20868;-71
2023/06/27 01:53:15;;;;;;;8.13;1.70;;;;;;;-146.25;100.00;52082.31;2087855;28;20089;-72
2023/06/27 01:54:19;;;;;;;5.53;1.80;;;;;;;-146.25;100.00;52082.31;2088457;28;20253;-72
2023/06/27 01:55:21;;;;;;;10.77;1.73;;;;;;;-146.25;100.00;52090.44;2088101;28;30333;-71
2023/06/27 01:56:23;;;;;;;5.97;1.98;;;;;;;-146.25;100.00;52100.56;2086750;28;26364;-72
2023/06/27 01:57:26;;;;;;;4.57;1.67;;;;;;;-146.25;100.00;52108.66;2087838;28;20048;-73
2023/06/27 01:58:29;;;;;;;7.50;1.80;;;;;;;-146.25;100.00;52055.97;2092575;28;20053;-72
2023/06/27 01:59:30;;;;;;;4.22;1.83;;;;;;;-146.25;100.00;52100.56;2093301;28;20103;-71
2023/06/27 02:00:32;;;;;;;8.15;1.95;;;;;;;-146.25;100.00;52092.44;2095723;28;20235;-71
2023/06/27 02:01:34;;;;;;;10.27;1.90;;;;;;;-146.25;100.00;52066.09;2101356;28;28863;-71
2023/06/27 02:02:36;;;;;;;5.63;1.70;;;;;;;-146.25;100.00;52100.56;2092796;28;28311;-71
2023/06/27 02:03:38;;;;;;;6.55;1.85;;;;;;;-146.25;100.00;52049.88;2085163;28;20049;-71
2023/06/27 02:04:40;;;;;;;3.65;1.77;;;;;;;-146.25;100.00;52086.38;2093110;28;27491;-71
2023/06/27 02:05:44;;;;;;;7.18;1.60;;;;;;;-146.25;100.00;52118.81;2093673;28;20053;-72
2023/06/27 02:06:46;;;;;;;4.55;1.70;;;;;;;-146.25;100.00;52084.34;2092865;28;28154;-71
2023/06/27 02:07:47;;;;;;;7.10;2.05;;;;;;;-146.25;100.00;52100.56;2101153;28;25254;-71
2023/06/27 02:08:50;;;;;;;7.03;2.22;;;;;;;-146.25;100.00;52104.63;2094129;28;22198;-72
2023/06/27 02:09:54;;;;;;;6.55;1.98;;;;;;;-146.25;100.00;52070.16;2101052;28;34568;-72
2023/06/27 02:10:56;;;;;;;5.60;2.03;;;;;;;-146.25;100.00;52116.78;2092925;28;26032;-72
2023/06/27 02:11:57;;;;;;;5.97;1.60;;;;;;;-146.25;100.00;52080.28;2092768;28;29461;-72
2023/06/27 02:13:03;;;;;;;6.45;1.88;;;;;;;-146.25;100.00;52110.69;2094674;28;29962;-72
2023/06/27 02:14:05;;;;;;;7.18;2.03;;;;;;;-146.25;100.00;52064.06;2103377;28;24782;-71
2023/06/27 02:15:08;;;;;;;5.97;2.00;;;;;;;-146.25;100.00;52104.63;2095430;28;20235;-71
2023/06/27 02:16:11;;;;;;;4.13;1.85;;;;;;;-146.25;100.00;52114.75;2088082;28;21854;-72
2023/06/27 02:17:13;;;;;;;6.80;1.70;;;;;;;-146.25;100.00;52068.13;2096993;28;20037;-72
2023/06/27 02:18:14;;;;;;;4.95;1.63;;;;;;;-146.25;100.00;52088.41;2104606;28;22405;-72
2023/06/27 02:19:16;;;;;;;6.10;1.83;;;;;;;-146.25;100.00;52104.63;2102171;28;23307;-70
2023/06/27 02:20:19;;;;;;;5.65;1.40;;;;;;;-146.25;100.00;52163.41;2090333;28;20052;-71
2023/06/27 02:21:21;;;;;;;5.18;1.65;;;;;;;-146.25;100.00;52104.63;2089873;28;26855;-72
2023/06/27 02:22:23;;;;;;;5.50;1.70;;;;;;;-146.25;100.00;52051.91;2080409;28;23744;-71
2023/06/27 02:23:25;;;;;;;4.55;1.90;;;;;;;-146.25;100.00;52098.53;2073736;28;27547;-71
2023/06/27 02:24:27;;;;;;;7.68;2.00;;;;;;;-146.25;100.00;52078.25;2095896;28;27369;-72
2023/06/27 02:25:28;;;;;;;6.95;2.00;;;;;;;-146.25;100.00;52086.38;2096145;28;27772;-71
2023/06/27 02:26:30;;;;;;;6.55;2.03;;;;;;;-146.25;100.00;52100.56;2094586;28;31048;-72
2023/06/27 02:27:32;;;;;;;7.10;2.17;;;;;;;-146.25;100.00;52090.44;2096242;28;20948;-72
2023/06/27 02:28:34;;;;;;;8.57;1.95;;;;;;;-146.25;100.00;52090.44;2094079;28;23025;-71
2023/06/27 02:29:38;;;;;;;7.90;2.00;;;;;;;-146.25;100.00;52110.69;2092656;28;22525;-72
2023/06/27 02:30:41;;;;;;;5.57;2.20;;;;;;;-146.25;100.00;52112.72;2089049;28;20034;-72
2023/06/27 02:31:43;;;;;;;6.03;1.85;;;;;;;-146.25;100.00;52064.06;2080675;28;20038;-72
2023/06/27 02:32:45;;;;;;;5.72;1.83;;;;;;;-146.25;100.00;52110.69;2088992;28;26422;-72
2023/06/27 02:33:47;;;;;;;10.07;2.42;;;;;;;-146.25;100.00;52090.44;2088359;28;22897;-71
2023/06/27 02:34:49;;;;;;;7.22;1.92;;;;;;;-146.25;100.00;52076.22;2088012;28;30276;-72
2023/06/27 02:35:51;;;;;;;3.17;2.13;;;;;;;-146.25;100.00;52058.00;2088685;28;30133;-71
2023/06/27 02:36:53;;;;;;;7.15;2.22;;;;;;;-146.25;100.00;52060.00;2088948;28;20190;-71
2023/06/27 02:37:54;;;;;;;6.38;2.42;;;;;;;-146.25;100.00;52100.56;2089081;28;20203;-71
2023/06/27 02:39:02;;;;;;;5.25;2.08;;;;;;;-146.25;100.00;52106.66;2081060;28;20049;-71
2023/06/27 02:40:09;;;;;;;7.03;1.70;;;;;;;-146.25;100.00;52084.34;2082537;28;20034;-71
2023/06/27 02:41:11;;;;;;;7.45;2.22;;;;;;;-146.25;100.00;52096.50;2081723;28;20108;-70
2023/06/27 02:42:13;;;;;;;7.65;2.35;;;;;;;-146.25;100.00;52112.72;2088514;28;27593;-71
2023/06/27 02:43:15;;;;;;;7.28;2.25;;;;;;;-146.25;100.00;52078.25;2089930;28;27276;-71
2023/06/27 02:44:16;;;;;;;4.72;2.20;;;;;;;-146.25;100.00;52080.28;2097145;28;22893;-72
2023/06/27 02:45:18;;;;;;;7.10;2.80;;;;;;;-146.25;100.00;52106.66;2096988;28;27011;-71
2023/06/27 02:46:22;;;;;;;7.50;2.25;;;;;;;-146.25;100.00;52126.91;2097407;28;20278;-71
2023/06/27 02:47:24;;;;;;;6.18;2.50;;;;;;;-146.25;100.00;52072.19;2098173;28;26388;-71
2023/06/27 02:48:26;;;;;;;7.13;2.22;;;;;;;-146.25;100.00;52072.19;2090166;28;29273;-71
2023/06/27 02:49:28;;;;;;;9.35;2.60;;;;;;;-146.25;100.00;52098.53;2089143;28;29043;-71
2023/06/27 02:50:29;;;;;;;6.15;2.85;;;;;;;-146.25;100.00;52112.72;2089181;28;28398;-71
2023/06/27 02:51:34;;;;;;;8.02;2.70;;;;;;;-146.25;100.00;52082.31;2088654;28;20068;-71
2023/06/27 02:52:36;;;;;;;7.05;2.67;;;;;;;-146.25;100.00;52100.56;2088883;28;20046;-71
2023/06/27 02:53:38;;;;;;;6.75;2.45;;;;;;;-146.25;100.00;52108.66;2088629;28;21918;-71
2023/06/27 02:54:40;;;;;;;5.25;2.28;;;;;;;-146.25;100.00;52151.25;2088963;28;20053;-71
2023/06/27 02:55:42;;;;;;;8.30;2.67;;;;;;;-146.25;100.00;52120.84;2080475;28;20823;-71
2023/06/27 02:56:43;;;;;;;5.28;2.40;;;;;;;-146.25;100.00;52080.28;2071998;28;20054;-71
2023/06/27 02:57:47;;;;;;;5.60;2.53;;;;;;;-146.25;100.00;52112.72;2072194;28;20047;-71
2023/06/27 02:58:51;;;;;;;7.88;3.10;;;;;;;-146.25;100.00;52100.56;2087819;28;20049;-71
2023/06/27 02:59:53;;;;;;;6.40;2.60;;;;;;;-146.25;100.00;52072.19;2084875;28;20057;-72
2023/06/27 03:00:56;;;;;;;10.63;3.20;;;;;;;-146.25;100.00;52141.13;2088634;28;28945;-71
2023/06/27 03:01:58;;;;;;;5.38;2.72;;;;;;;-146.25;100.00;52116.78;2087983;28;20061;-71
2023/06/27 03:03:00;;;;;;;9.85;2.78;;;;;;;-146.25;100.00;52082.31;2079986;28;20050;-71
2023/06/27 03:04:05;;;;;;;7.60;2.75;;;;;;;-146.25;100.00;52088.41;2079605;28;20053;-72
2023/06/27 03:05:18;;;;;;;9.23;3.25;;;;;;;-146.25;100.00;52104.63;2090238;28;20877;-71
2023/06/27 03:06:22;;;;;;;6.70;3.45;;;;;;;-146.25;100.00;52049.88;2088628;28;20049;-71
2023/06/27 03:07:24;;;;;;;5.90;2.97;;;;;;;-146.25;100.00;52096.50;2080117;28;31200;-71
2023/06/27 03:08:26;;;;;;;8.43;2.97;;;;;;;-146.25;100.00;52120.84;2097252;28;20048;-71
2023/06/27 03:09:28;;;;;;;6.38;3.13;;;;;;;-146.25;100.00;52116.78;2088503;28;20124;-72
2023/06/27 03:10:31;;;;;;;9.35;2.72;;;;;;;-146.25;100.00;52108.66;2088843;28;20045;-71
2023/06/27 03:11:34;;;;;;;5.60;2.72;;;;;;;-146.25;100.00;52088.41;2088089;28;20120;-71
2023/06/27 03:12:38;;;;;;;7.72;2.65;;;;;;;-146.25;100.00;52137.06;2080661;28;20041;-71
2023/06/27 03:13:39;;;;;;;5.93;2.65;;;;;;;-146.25;100.00;52102.59;2080542;28;27888;-70
2023/06/27 03:14:44;;;;;;;9.88;3.15;;;;;;;-146.25;100.00;52106.66;2088647;28;20045;-71
2023/06/27 03:15:49;;;;;;;6.63;2.80;;;;;;;-146.25;100.00;52104.63;2080988;28;20042;-72
2023/06/27 03:16:51;;;;;;;9.52;3.85;;;;;;;-146.25;100.00;52094.47;2080264;28;20131;-71
2023/06/27 03:17:53;;;;;;;8.63;3.30;;;;;;;-146.25;100.00;52084.34;2073908;28;20042;-71
2023/06/27 03:18:57;;;;;;;9.55;3.33;;;;;;;-146.25;100.00;52104.63;2081650;28;20042;-71
2023/06/27 03:19:59;;;;;;;9.63;3.15;;;;;;;-146.25;100.00;52098.53;2088554;28;20053;-71
2023/06/27 03:21:02;;;;;;;6.53;3.60;;;;;;;-146.25;100.00;52084.34;2088619;28;20042;-71
2023/06/27 03:22:05;;;;;;;6.35;2.88;;;;;;;-146.25;100.00;52108.66;2080737;28;20045;-71
2023/06/27 03:23:07;;;;;;;6.25;3.22;;;;;;;-146.25;100.00;52120.84;2088513;28;23198;-72
2023/06/27 03:24:09;;;;;;;7.97;3.60;;;;;;;-146.25;100.00;52108.66;2087878;28;24852;-72
2023/06/27 03:25:18;;;;;;;9.90;3.42;;;;;;;-146.25;100.00;52092.44;2081171;28;20105;-72
2023/06/27 03:26:23;;;;;;;5.72;3.20;;;;;;;-146.25;100.00;52114.75;2088906;28;20091;-72
2023/06/27 03:27:26;;;;;;;5.60;2.85;;;;;;;-146.25;100.00;52084.34;2089116;28;20147;-72
2023/06/27 03:28:29;;;;;;;5.75;3.10;;;;;;;-146.25;100.00;52114.75;2079919;28;20042;-72
2023/06/27 03:29:30;;;;;;;5.32;3.75;;;;;;;-146.25;100.00;52143.13;2080485;28;20768;-72
2023/06/27 03:30:32;;;;;;;6.13;3.33;;;;;;;-146.25;100.00;52106.66;2081163;28;20042;-72
2023/06/27 03:31:34;;;;;;;9.40;3.42;;;;;;;-146.25;100.00;52110.69;2071907;28;20927;-72
2023/06/27 03:32:37;;;;;;;6.32;3.70;;;;;;;-146.25;100.00;52088.41;2072659;28;20039;-71
2023/06/27 03:33:38;;;;;;;9.18;3.60;;;;;;;-146.25;100.00;52128.94;2088519;28;20119;-72
2023/06/27 03:34:42;;;;;;;9.18;3.50;;;;;;;-146.25;100.00;52112.72;2088702;28;20139;-72
2023/06/27 03:35:44;;;;;;;8.32;3.42;;;;;;;-146.25;100.00;52128.94;2079976;28;20974;-72
2023/06/27 03:36:46;;;;;;;7.60;3.58;;;;;;;-146.25;100.00;52096.50;2080489;28;20891;-72
2023/06/27 03:37:47;;;;;;;5.38;3.03;;;;;;;-146.25;100.00;52110.69;2084485;28;20050;-72
2023/06/27 03:38:50;;;;;;;9.10;3.80;;;;;;;-146.25;100.00;52108.66;2077525;28;20058;-72
2023/06/27 03:39:52;;;;;;;7.68;3.30;;;;;;;-146.25;100.00;52114.75;2086229;28;20941;-72
2023/06/27 03:40:54;;;;;;;4.85;3.15;;;;;;;-146.25;100.00;52120.84;2079185;28;20804;-72
2023/06/27 03:41:56;;;;;;;7.10;3.30;;;;;;;-146.25;100.00;52076.22;2088101;28;23258;-72
2023/06/27 03:42:58;;;;;;;6.60;3.30;;;;;;;-146.25;100.00;52108.66;2079291;28;20038;-72
2023/06/27 03:44:02;;;;;;;7.05;3.40;;;;;;;-146.25;100.00;52104.63;2080736;28;21028;-72
2023/06/27 03:45:05;;;;;;;5.53;3.22;;;;;;;-146.25;100.00;52120.84;2088690;28;20041;-72
2023/06/27 03:46:06;;;;;;;10.07;3.35;;;;;;;-146.25;100.00;52116.78;2079942;28;31456;-72
2023/06/27 03:47:08;;;;;;;7.18;2.85;;;;;;;-146.25;100.00;52130.97;2080289;28;20830;-72
2023/06/27 03:48:14;;;;;;;6.40;2.90;;;;;;;-146.25;100.00;52116.78;2080251;28;20054;-72
2023/06/27 03:49:17;;;;;;;6.05;3.13;;;;;;;-146.25;100.00;52122.88;2089703;28;36596;-72
2023/06/27 03:50:19;;;;;;;5.90;3.28;;;;;;;-146.25;100.00;52090.44;2088936;28;20056;-72
2023/06/27 03:51:20;;;;;;;8.80;3.38;;;;;;;-146.25;100.00;52098.53;2088278;28;20046;-72
2023/06/27 03:52:22;;;;;;;6.50;3.40;;;;;;;-146.25;100.00;52124.91;2088582;28;20140;-72
2023/06/27 03:53:26;;;;;;;8.00;3.50;;;;;;;-146.25;100.00;52110.69;2088626;28;20123;-72
2023/06/27 03:54:28;;;;;;;7.20;3.22;;;;;;;-146.25;100.00;52126.91;2087859;28;24831;-72
2023/06/27 03:55:32;;;;;;;7.28;3.28;;;;;;;-146.25;100.00;52108.66;2079579;28;28210;-73
2023/06/27 03:56:34;;;;;;;7.20;2.72;;;;;;;-146.25;100.00;52106.66;2079604;28;20193;-72
2023/06/27 03:57:36;;;;;;;9.10;3.55;;;;;;;-146.25;100.00;52124.91;2080409;28;20132;-73
2023/06/27 03:58:38;;;;;;;6.72;3.03;;;;;;;-146.25;100.00;52124.91;2088672;28;20042;-72
2023/06/27 04:01:17;;;;;;;7.75;2.78;;;;;;;-146.25;100.00;52130.97;2082872;28;20076;-70
2023/06/27 04:02:20;;;;;;;3.55;2.60;;;;;;;-146.25;100.00;52106.66;2087757;28;20034;-69
2023/06/27 04:03:21;;;;;;;4.72;2.78;;;;;;;-146.25;100.00;52120.84;2079609;28;20046;-70
2023/06/27 04:04:27;;;;;;;6.95;2.70;;;;;;;-146.25;100.00;52100.56;2071401;28;20980;-71
2023/06/27 04:05:31;;;;;;;6.30;2.50;;;;;;;-146.25;100.00;52126.91;2080035;28;24071;-72
2023/06/27 04:06:33;;;;;;;6.75;3.00;;;;;;;-146.25;100.00;52086.38;2079745;28;20185;-71
2023/06/27 04:07:35;;;;;;;6.35;2.38;;;;;;;-146.25;100.00;52084.34;2079538;28;20073;-71
2023/06/27 04:08:37;;;;;;;6.85;2.58;;;;;;;-146.25;100.00;52126.91;2079840;28;20768;-72
2023/06/27 04:09:39;;;;;;;8.68;2.55;;;;;;;-146.25;100.00;52096.50;2080218;28;20115;-73
2023/06/27 04:10:42;;;;;;;4.35;2.42;;;;;;;-146.25;100.00;52120.84;2088072;28;20099;-72
2023/06/27 04:11:44;;;;;;;5.63;2.60;;;;;;;-146.25;100.00;52106.66;2088010;28;20045;-73
2023/06/27 04:12:49;;;;;;;6.25;2.28;;;;;;;-146.25;100.00;52102.59;2088412;28;20053;-72
2023/06/27 04:13:53;;;;;;;8.73;2.60;;;;;;;-146.25;100.00;52118.81;2088572;28;20080;-72
2023/06/27 04:14:55;;;;;;;6.50;2.45;;;;;;;-146.25;100.00;52080.28;2088657;28;21173;-73
2023/06/27 04:15:57;;;;;;;6.90;2.50;;;;;;;-146.25;100.00;52084.34;2088506;28;20083;-70
2023/06/27 04:16:59;;;;;;;10.05;3.42;;;;;;;-146.25;100.00;52104.63;2088204;28;20220;-72
2023/06/27 04:18:01;;;;;;;6.32;2.88;;;;;;;-146.25;100.00;52104.63;2072089;28;20077;-70
2023/06/27 04:19:03;;;;;;;6.68;2.40;;;;;;;-146.25;100.00;52110.69;2073153;28;20100;-70
2023/06/27 04:20:11;;;;;;;6.40;3.17;;;;;;;-146.25;99.64;52157.34;2089537;28;20057;-71
2023/06/27 04:21:15;;;;;;;4.07;2.50;;;;;;;-146.25;99.63;52139.09;2079610;28;26044;-71
2023/06/27 04:22:19;;;;;;;8.13;2.42;;;;;;;-146.25;98.63;52076.22;2072555;28;20105;-71
2023/06/27 04:23:20;;;;;;;7.38;2.50;;;;;;;-146.25;97.11;52128.94;2079991;28;20199;-70
2023/06/27 04:24:22;;;;;;;6.03;2.30;;;;;;;-146.25;95.96;52092.44;2079910;28;21049;-70
2023/06/27 04:25:30;;;;;;;4.63;2.03;;;;;;;-146.25;91.89;52100.56;2079764;28;20042;-71
2023/06/27 04:26:34;;;;;;;4.88;2.20;;;;;;;-146.25;88.77;52151.25;2079876;28;20037;-71
2023/06/27 04:27:39;;;;;;;5.03;1.85;;;;;;;-146.25;86.43;52179.63;2080129;28;20046;-71
2023/06/27 04:28:46;;;;;;;4.93;1.77;;;;;;;-146.25;82.15;52124.91;2080253;28;30383;-71
2023/06/27 04:29:48;;;;;;;5.20;1.70;;;;;;;-146.25;79.29;52157.34;2080109;28;35575;-71
2023/06/27 04:30:50;;;;;;;4.95;1.70;;;;;;;-146.25;75.40;52124.91;2082164;28;20819;-71
2023/06/27 04:31:52;;;;;;;4.93;1.80;;;;;;;-146.25;73.23;52149.22;2080753;28;34108;-71
2023/06/27 04:32:56;;;;;;;5.07;1.50;;;;;;;-146.25;71.85;52076.22;2080872;28;20930;-71
2023/06/27 04:34:00;;;;;;;5.28;1.45;;;;;;;-146.25;66.52;52130.97;2080701;28;28579;-73
2023/06/27 04:35:03;;;;;;;2.47;1.02;;;;;;;-146.25;65.60;52102.59;2080526;28;20065;-70
2023/06/27 04:36:06;;;;;;;2.38;1.05;;;;;;;-146.25;62.02;52078.25;2079749;28;33080;-72
2023/06/27 04:37:08;;;;;;;7.35;1.70;;;;;;;-146.25;59.85;52157.34;2088114;28;21017;-71
2023/06/27 04:38:14;;;;;;;4.45;1.20;;;;;;;-146.25;59.65;52108.66;2087500;28;36481;-71
2023/06/27 04:39:15;;;;;;;4.05;1.17;;;;;;;-146.25;58.33;52106.66;2080432;28;34414;-72
2023/06/27 04:40:17;;;;;;;3.22;1.05;;;;;;;-146.25;57.03;52078.25;2080119;28;20065;-71
2023/06/27 04:41:19;;;;;;;4.13;0.90;;;;;;;-146.25;54.23;52098.53;2080031;28;20985;-71
2023/06/27 04:42:21;;;;;;;3.20;1.20;;;;;;;-146.25;54.14;52076.22;2088465;28;20104;-71
2023/06/27 04:43:26;;;;;;;6.43;1.08;;;;;;;-146.25;52.35;52094.47;2088434;28;20092;-70
2023/06/27 04:44:28;;;;;;;2.50;1.00;;;;;;;-146.25;49.96;52114.75;2088394;28;20049;-73
2023/06/27 04:45:30;;;;;;;2.72;1.00;;;;;;;-146.25;49.19;52104.63;2088418;28;20980;-72
2023/06/27 04:46:32;;;;;;;3.25;0.90;;;;;;;-146.25;48.97;52070.16;2080589;28;35472;-71
2023/06/27 04:47:37;;;;;;;3.15;0.77;;;;;;;-146.25;48.63;52080.28;2081054;28;20041;-71
2023/06/27 04:48:40;;;;;;;3.20;0.98;;;;;;;-146.25;48.16;52060.00;2079990;28;34000;-70
2023/06/27 04:49:44;;;;;;;2.58;0.80;;;;;;;-146.25;46.80;52068.13;2081594;28;20057;-71
2023/06/27 04:50:46;;;;;;;4.28;1.10;;;;;;;-146.25;46.25;52088.41;2080360;28;33439;-71
2023/06/27 04:51:48;;;;;;;3.15;0.70;;;;;;;-146.25;45.20;52078.25;2080781;28;21007;-71
2023/06/27 04:52:50;;;;;;;5.35;1.08;;;;;;;-146.25;45.65;52076.22;2080701;28;20034;-71